Brookville Heights, Indiana
Current Conditions -  °F | °C
As of 3:15 PM on Friday 31 Oct 2014 (Local Time) from KMQJ Reporting Station
Overcast Overcast  
Wind Chill: 28°   Ceiling: 1500
Heat Index: 37°   Visibility: 10mi
Dew Point: 32°   Wind: 16mph
Humidity: 81%   Direction: 300°WNW
Pressure: 29.97"   Gusts: 25mph
Location:  39.731°N, 85.9032°W
Report Text: KMQJ 311915Z AUTO 30014G22KT 10SM BKN015 OVC021 03/00 A2997 RMK AO1
Loading
Personal Weather Stations






























Interactive Weather Map
Tropical Storm Tracking
New forecast layout! Learn more

10-Day Weather Forecast

Advertisements
Track Severe Weather on mobile